Terminal Aerodrome Forecast
Issued by NWS Cleveland, OH

Home | Current Version | Previous Version | Graphics & Text | Print | Product List | Glossary On
Versions: 1 2 3 4 5 6 7 8 9 10 11 12 13 14 15 16 17 18 19 20 21 22 23 24 25 26 27 28 29 30 31 32 33 34
000
FTUS41 KCLE 271700
TAFCLE
TAF
KCLE 271731Z 2718/2824 32010KT 2SM -SN BKN015 OVC025
      TEMPO 2720/2722 5SM -SHSN SCT015 OVC025
     FM272200 36014KT P6SM BKN035
      TEMPO 2723/2803 -SN BKN030
     FM281500 34010KT P6SM SCT035=

USA.gov is the U.S. government's official web portal to all federal, state and local government web resources and services.